Time;durP1;ratioP1;P1;durP2;ratioP2;P2;SDS_P1;SDS_P2;PMS_P1;PMS_P2;Temp;Humidity;BMP_temperature;BMP_pressure;BME280_temperature;BME280_humidity;BME280_pressure;Samples;Min_cycle;Max_cycle;Signal;HPM_P1;HPM_P2
2023/05/21 00:00:12;;;;;;;3.15;2.58;;;;;;;15.46;67.77;101571.81;15782363;28;20040;-49
2023/05/21 00:07:46;;;;;;;4.97;3.30;;;;;;;15.37;68.03;101567.72;15755399;28;20029;-46
2023/05/21 00:15:19;;;;;;;6.68;2.17;;;;;;;15.33;68.33;101570.03;15780845;28;20123;-49
2023/05/21 00:22:53;;;;;;;4.72;2.25;;;;;;;15.29;68.51;101563.41;15742967;28;20075;-49
2023/05/21 00:30:26;;;;;;;5.97;3.10;;;;;;;15.37;68.16;101559.63;15726388;28;20521;-46
2023/05/21 00:38:01;;;;;;;7.83;4.17;;;;;;;15.35;68.25;101556.31;15713258;28;20040;-49
2023/05/21 00:45:35;;;;;;;5.22;3.50;;;;;;;16.02;65.73;101557.31;15709370;28;20040;-49
2023/05/21 00:53:11;;;;;;;6.38;3.03;;;;;;;15.92;65.72;101552.41;15758373;28;20040;-48
2023/05/21 01:00:44;;;;;;;4.68;3.20;;;;;;;16.02;65.22;101547.28;15740813;28;20037;-50
2023/05/21 01:08:19;;;;;;;6.93;4.28;;;;;;;15.94;65.34;101541.34;15737023;28;20071;-47
2023/05/21 01:15:53;;;;;;;3.95;2.85;;;;;;;15.79;65.65;101529.03;15744296;28;20044;-48
2023/05/21 01:23:28;;;;;;;9.23;3.70;;;;;;;15.77;65.36;101535.72;15736140;28;20466;-49
2023/05/21 01:31:13;;;;;;;4.70;3.15;;;;;;;15.64;65.86;101531.28;15736366;28;20505;-50
2023/05/21 01:38:57;;;;;;;5.32;3.15;;;;;;;15.60;65.89;101526.50;15695477;28;20078;-46
2023/05/21 01:46:32;;;;;;;6.18;3.90;;;;;;;15.24;66.62;101528.09;15725302;28;20489;-50
2023/05/21 01:54:06;;;;;;;15.70;3.92;;;;;;;15.02;67.76;101524.97;15696185;28;20505;-48
2023/05/21 02:01:38;;;;;;;6.13;3.22;;;;;;;15.36;66.80;101514.69;15734093;28;20577;-49
2023/05/21 02:09:15;;;;;;;4.88;3.28;;;;;;;15.35;66.59;101511.16;15722739;28;20493;-47
2023/05/21 02:16:49;;;;;;;10.63;3.45;;;;;;;15.18;66.71;101510.06;15723903;28;20720;-51
2023/05/21 02:24:23;;;;;;;6.10;3.47;;;;;;;14.93;67.34;101501.97;15720974;28;20144;-48
2023/05/21 02:31:56;;;;;;;6.22;2.85;;;;;;;14.84;67.28;101500.56;15696868;22;20501;-50
2023/05/21 02:39:31;;;;;;;6.75;2.90;;;;;;;14.62;67.78;101498.22;15639669;28;20095;-51
2023/05/21 02:47:04;;;;;;;5.32;3.00;;;;;;;14.64;67.59;101498.84;15594594;28;20561;-51
2023/05/21 02:54:38;;;;;;;;;;;;;;;14.70;68.00;101489.88;15594758;28;20037;-50
2023/05/21 03:02:11;;;;;;;4.32;3.42;;;;;;;14.17;70.70;101490.13;15651779;28;20007;-49
2023/05/21 03:09:46;;;;;;;;;;;;;;;14.13;71.24;101490.78;15620172;28;20140;-50
2023/05/21 03:17:21;;;;;;;4.22;3.33;;;;;;;13.63;74.33;101485.19;15645366;28;19925;-50
2023/05/21 03:24:58;;;;;;;6.78;3.38;;;;;;;14.09;72.98;101489.59;15640933;28;20424;-49
2023/05/21 03:32:32;;;;;;;7.30;4.15;;;;;;;13.78;74.64;101488.47;15653578;28;20033;-47
2023/05/21 03:40:08;;;;;;;6.78;4.05;;;;;;;13.88;74.57;101485.31;15639940;28;20072;-48
2023/05/21 03:47:41;;;;;;;5.30;3.85;;;;;;;14.20;73.48;101488.91;15652253;28;20037;-48
2023/05/21 03:55:17;;;;;;;7.32;3.55;;;;;;;14.60;72.14;101488.69;15658958;28;20067;-50
2023/05/21 04:02:51;;;;;;;8.40;4.30;;;;;;;14.48;73.29;101494.78;15645424;28;20072;-48
2023/05/21 04:10:26;;;;;;;8.82;3.95;;;;;;;14.41;73.87;101491.28;15646962;28;20052;-47
2023/05/21 04:18:00;;;;;;;8.35;4.88;;;;;;;14.56;74.00;101487.47;15638897;28;20120;-49
2023/05/21 04:25:34;;;;;;;9.73;4.75;;;;;;;14.75;73.90;101491.91;15650576;28;20041;-48
2023/05/21 04:33:08;;;;;;;7.85;4.20;;;;;;;15.01;73.47;101497.13;15622107;28;20135;-47
2023/05/21 04:40:44;;;;;;;7.90;4.90;;;;;;;15.18;72.58;101497.38;15614120;28;20128;-49
2023/05/21 04:48:18;;;;;;;7.82;5.25;;;;;;;15.47;72.01;101498.53;15653692;28;20029;-49
2023/05/21 04:55:52;;;;;;;9.07;5.72;;;;;;;15.76;71.78;101482.63;15584474;28;20090;-51
2023/05/21 05:03:26;;;;;;;6.55;5.28;;;;;;;15.71;72.01;101490.59;15625702;28;20128;-50
2023/05/21 05:11:01;;;;;;;8.23;5.05;;;;;;;16.54;69.28;101485.31;15643277;28;20041;-50
2023/05/21 05:18:35;;;;;;;8.35;4.35;;;;;;;16.68;69.05;101494.09;15609119;28;20464;-55
2023/05/21 05:26:10;;;;;;;13.27;6.45;;;;;;;16.47;69.54;101486.50;15616540;28;20116;-50
2023/05/21 05:33:43;;;;;;;9.15;3.83;;;;;;;17.01;68.45;101496.28;15645972;28;20041;-50
2023/05/21 05:41:19;;;;;;;10.82;6.10;;;;;;;17.05;68.05;101483.91;15659921;28;20034;-51
2023/05/21 05:48:54;;;;;;;8.75;4.85;;;;;;;17.12;68.20;101489.25;15621490;28;20037;-52
2023/05/21 05:56:29;;;;;;;10.55;5.22;;;;;;;17.18;67.97;101487.47;15614272;28;20489;-49
2023/05/21 06:04:02;;;;;;;10.88;5.57;;;;;;;17.18;67.80;101485.56;15637574;28;20049;-53
2023/05/21 06:11:38;;;;;;;14.23;5.88;;;;;;;17.18;68.16;101482.84;15594006;28;20370;-49
2023/05/21 06:19:11;;;;;;;13.15;6.38;;;;;;;17.74;66.50;101484.13;15656674;28;20029;-54
2023/05/21 06:26:46;;;;;;;8.60;4.75;;;;;;;17.78;66.55;101479.03;15607271;28;20053;-48
2023/05/21 06:34:20;;;;;;;12.70;5.40;;;;;;;18.18;65.12;101476.28;15611919;28;20041;-54
2023/05/21 06:41:54;;;;;;;7.40;4.95;;;;;;;18.83;63.43;101475.84;15601187;28;20037;-50
2023/05/21 06:49:50;;;;;;;8.35;4.20;;;;;;;19.56;61.47;101468.50;15612172;28;20041;-51
2023/05/21 06:57:25;;;;;;;9.85;6.10;;;;;;;20.28;58.26;101461.97;15591019;28;20387;-49
2023/05/21 07:04:58;;;;;;;9.52;4.78;;;;;;;20.25;57.23;101464.41;15649203;28;20033;-50
2023/05/21 07:12:33;;;;;;;7.03;4.50;;;;;;;20.89;56.10;101467.22;15627186;28;20055;-48
2023/05/21 07:20:08;;;;;;;5.80;3.72;;;;;;;22.15;52.84;101470.91;15665874;28;20033;-50
2023/05/21 07:27:46;;;;;;;7.97;4.68;;;;;;;22.23;52.34;101464.88;15655896;28;20105;-51
2023/05/21 07:35:20;;;;;;;7.03;4.78;;;;;;;23.90;48.97;101454.81;15633032;28;20122;-52
2023/05/21 07:42:55;;;;;;;7.82;4.47;;;;;;;23.89;47.76;101457.84;15607664;28;20049;-47
2023/05/21 07:50:32;;;;;;;5.78;3.67;;;;;;;23.62;48.83;101452.75;15630763;28;20077;-49
2023/05/21 07:58:07;;;;;;;9.35;4.78;;;;;;;22.73;50.97;101446.88;15656354;28;20049;-52
2023/05/21 08:05:41;;;;;;;6.85;3.90;;;;;;;23.29;50.59;101438.59;15641219;28;20551;-50
2023/05/21 08:13:17;;;;;;;5.80;3.47;;;;;;;22.85;50.70;101431.00;15647006;28;20483;-48
2023/05/21 08:20:53;;;;;;;6.13;3.53;;;;;;;23.72;48.71;101439.00;15615076;28;20053;-52
2023/05/21 08:28:30;;;;;;;7.88;3.60;;;;;;;23.85;48.94;101434.84;15597873;28;20056;-54
2023/05/21 08:36:06;;;;;;;7.30;3.85;;;;;;;24.66;46.22;101430.72;15601694;28;20046;-52
2023/05/21 08:43:48;;;;;;;4.88;3.30;;;;;;;24.57;47.27;101433.25;15631226;28;20056;-51
2023/05/21 08:51:21;;;;;;;7.13;3.88;;;;;;;24.42;46.75;101430.66;15629059;28;20041;-50
2023/05/21 08:58:59;;;;;;;6.47;3.60;;;;;;;24.75;46.15;101426.25;15670822;28;20041;-50
2023/05/21 09:06:40;;;;;;;7.57;3.40;;;;;;;24.66;46.94;101417.81;15668690;28;20045;-54
2023/05/21 09:14:17;;;;;;;7.80;2.80;;;;;;;25.40;45.42;101420.38;15638231;28;20513;-49
2023/05/21 09:22:06;;;;;;;5.15;2.95;;;;;;;25.35;44.94;101415.75;15652321;28;20045;-50
2023/05/21 09:29:42;;;;;;;7.10;3.42;;;;;;;25.76;42.58;101411.72;15619142;28;20045;-49
2023/05/21 09:37:19;;;;;;;3.88;2.38;;;;;;;25.78;41.96;101398.47;15606428;28;20052;-49
2023/05/21 09:44:53;;;;;;;5.88;2.47;;;;;;;25.84;41.23;101402.81;15668847;28;20136;-48
2023/05/21 09:52:27;;;;;;;5.18;1.83;;;;;;;26.26;40.31;101401.06;15658104;28;20052;-48
2023/05/21 10:00:01;;;;;;;2.33;1.65;;;;;;;26.57;39.66;101404.97;15666767;22;20064;-73
2023/05/21 10:07:35;;;;;;;3.55;1.77;;;;;;;26.77;37.71;101398.28;15616478;28;20095;-73
2023/05/21 10:15:14;;;;;;;3.72;1.75;;;;;;;27.07;37.06;101372.09;15597033;28;20445;-72
2023/05/21 10:22:48;;;;;;;4.93;1.83;;;;;;;27.56;35.73;101362.28;15605964;28;20045;-70
2023/05/21 10:30:24;;;;;;;3.80;1.95;;;;;;;27.29;36.46;101343.03;15621170;28;20053;-70
2023/05/21 10:37:57;;;;;;;4.18;2.20;;;;;;;27.42;36.07;101347.72;15638516;28;20119;-72
2023/05/21 10:45:48;;;;;;;3.55;1.60;;;;;;;26.78;36.13;101350.34;15622750;28;20057;-71
2023/05/21 10:53:28;;;;;;;2.27;1.00;;;;;;;26.25;36.96;101345.19;15597425;28;20040;-71
2023/05/21 11:01:04;;;;;;;11.07;2.13;;;;;;;26.50;36.74;101349.47;15616430;28;20053;-71
2023/05/21 11:08:38;;;;;;;3.72;1.90;;;;;;;27.18;36.54;101343.22;15672295;28;20076;-71
2023/05/21 11:16:20;;;;;;;2.63;1.63;;;;;;;27.90;35.52;101323.16;15633898;28;20084;-72
2023/05/21 11:23:54;;;;;;;3.65;1.77;;;;;;;27.91;34.36;101324.78;15622776;28;20053;-69
2023/05/21 11:31:36;;;;;;;3.38;1.67;;;;;;;28.83;32.08;101329.91;15614867;28;20033;-71
2023/05/21 11:39:10;;;;;;;3.78;2.00;;;;;;;28.57;33.09;101318.72;15589068;28;20068;-73
2023/05/21 11:46:46;;;;;;;3.17;1.60;;;;;;;28.49;32.83;101309.25;15597603;28;20127;-72
2023/05/21 11:54:19;;;;;;;2.58;1.52;;;;;;;28.62;32.09;101305.59;15616518;28;20605;-72
2023/05/21 12:01:54;;;;;;;3.03;1.58;;;;;;;28.78;31.02;101319.81;15595584;28;20042;-73
2023/05/21 12:09:27;;;;;;;2.35;1.48;;;;;;;29.07;31.00;101316.53;15605607;28;20077;-72
2023/05/21 12:17:01;;;;;;;2.65;1.48;;;;;;;28.81;31.41;101308.09;15599902;28;20050;-71
2023/05/21 12:24:37;;;;;;;2.25;1.45;;;;;;;28.88;31.00;101305.69;15595406;28;20968;-72
2023/05/21 12:32:14;;;;;;;6.60;1.58;;;;;;;29.53;30.95;101304.06;15609278;28;20045;-72
2023/05/21 12:39:49;;;;;;;3.88;1.63;;;;;;;29.66;30.76;101297.59;15614623;28;20127;-71
2023/05/21 12:47:25;;;;;;;2.17;1.52;;;;;;;29.92;30.10;101293.97;15612144;28;20076;-71
2023/05/21 12:54:59;;;;;;;3.63;1.13;;;;;;;29.44;30.59;101294.94;15622816;28;20114;-72
2023/05/21 13:02:39;;;;;;;3.83;1.75;;;;;;;29.57;30.13;101296.78;15631223;28;20068;-73
2023/05/21 13:10:13;;;;;;;2.33;1.37;;;;;;;29.77;30.49;101292.53;15612473;28;20693;-72
2023/05/21 13:17:47;;;;;;;4.35;1.38;;;;;;;28.82;31.78;101282.13;15607994;28;20059;-72
2023/05/21 13:25:23;;;;;;;3.72;2.28;;;;;;;29.29;31.33;101284.38;15632035;28;20060;-72
2023/05/21 13:32:58;;;;;;;1.73;1.33;;;;;;;28.27;32.15;101271.47;15610171;28;20053;-73
2023/05/21 13:40:31;;;;;;;3.45;1.65;;;;;;;28.17;32.10;101247.69;15592804;28;20041;-72
2023/05/21 13:48:06;;;;;;;3.13;1.85;;;;;;;28.26;31.53;101257.94;15568665;28;20041;-73
2023/05/21 14:03:36;;;;;;;3.72;2.65;;;;;;;27.88;31.98;101241.81;15614320;28;20530;-72
2023/05/21 14:11:13;;;;;;;2.20;1.52;;;;;;;27.73;33.35;101251.31;15619661;28;20051;-72
2023/05/21 14:19:03;;;;;;;3.13;1.98;;;;;;;27.87;33.37;101257.56;15623693;28;20042;-72
2023/05/21 14:26:37;;;;;;;1.88;1.35;;;;;;;27.48;33.59;101247.19;15624894;28;20041;-72
2023/05/21 14:34:11;;;;;;;3.95;1.40;;;;;;;27.51;33.38;101265.03;15628338;28;20244;-71
2023/05/21 14:41:44;;;;;;;2.75;1.42;;;;;;;27.87;33.54;101251.25;15581861;28;20041;-71
2023/05/21 14:49:18;;;;;;;4.22;1.90;;;;;;;27.58;33.78;101266.25;15704987;22;20048;-52
2023/05/21 14:56:52;;;;;;;3.72;1.85;;;;;;;27.58;33.91;101257.16;15619779;23;20510;-49
2023/05/21 15:04:26;;;;;;;4.80;2.20;;;;;;;27.44;34.35;101262.72;15610052;28;20049;-53
2023/05/21 15:11:59;;;;;;;3.97;2.00;;;;;;;27.01;34.85;101248.50;15590945;28;20042;-52
2023/05/21 15:19:33;;;;;;;2.80;1.40;;;;;;;26.81;34.87;101250.56;15576027;28;20053;-49
2023/05/21 15:27:05;;;;;;;2.95;1.73;;;;;;;26.77;34.87;101244.06;15565839;28;20117;-51
2023/05/21 15:34:40;;;;;;;2.97;1.60;;;;;;;27.41;35.37;101244.03;15566172;28;20098;-51
2023/05/21 15:42:12;;;;;;;3.08;1.30;;;;;;;27.24;34.11;101244.72;15555265;28;20038;-49
2023/05/21 15:49:46;;;;;;;2.20;1.45;;;;;;;27.13;34.43;101241.34;15606901;28;20049;-49
2023/05/21 15:57:19;;;;;;;2.33;1.30;;;;;;;26.87;34.60;101232.00;15602768;28;20086;-49
2023/05/21 16:04:53;;;;;;;2.33;1.40;;;;;;;26.96;34.57;101236.47;15581018;28;20152;-48
2023/05/21 16:12:26;;;;;;;2.05;1.08;;;;;;;26.90;34.00;101236.88;15586940;28;20049;-49
2023/05/21 16:20:01;;;;;;;2.83;1.67;;;;;;;26.80;34.68;101229.66;15596337;28;20236;-51
2023/05/21 16:27:35;;;;;;;2.22;1.40;;;;;;;26.93;34.56;101230.75;15566714;28;20049;-55
2023/05/21 16:35:09;;;;;;;2.78;1.30;;;;;;;26.98;35.14;101225.13;15564103;28;20362;-48
2023/05/21 16:42:42;;;;;;;3.65;1.65;;;;;;;26.81;34.73;101224.94;15551237;28;20045;-49
2023/05/21 16:50:16;;;;;;;4.03;1.63;;;;;;;26.37;35.26;101227.19;15558270;28;20045;-47
2023/05/21 16:57:49;;;;;;;2.85;1.75;;;;;;;26.31;35.08;101222.91;15569262;28;20048;-51
2023/05/21 17:05:24;;;;;;;2.05;1.40;;;;;;;26.13;35.41;101237.53;15553561;28;20053;-48
2023/05/21 17:12:58;;;;;;;2.58;1.40;;;;;;;26.09;35.61;101239.28;15554420;28;20058;-50
2023/05/21 17:20:32;;;;;;;2.10;1.23;;;;;;;26.26;35.13;101235.94;15529234;28;20521;-51
2023/05/21 17:28:05;;;;;;;2.00;1.20;;;;;;;25.86;35.97;101239.09;15539354;28;20072;-51
2023/05/21 17:35:40;;;;;;;2.63;1.50;;;;;;;25.86;35.41;101236.34;15499968;28;20063;-48
2023/05/21 17:43:13;;;;;;;1.88;1.13;;;;;;;25.80;36.19;101243.06;15544279;28;20044;-55
2023/05/21 17:50:47;;;;;;;1.92;1.25;;;;;;;25.24;37.07;101237.59;15554591;28;20490;-56
2023/05/21 17:58:20;;;;;;;2.17;1.17;;;;;;;25.18;37.34;101253.31;15531513;28;1089082;-51
2023/05/21 18:05:57;;;;;;;3.30;1.23;;;;;;;24.94;37.78;101256.88;15545189;28;20056;-49
2023/05/21 18:13:30;;;;;;;1.58;1.17;;;;;;;24.72;37.48;101253.88;15529119;28;20075;-52
2023/05/21 18:21:04;;;;;;;2.13;0.88;;;;;;;24.56;38.09;101263.38;15541739;28;20049;-48
2023/05/21 18:28:37;;;;;;;3.05;1.50;;;;;;;24.14;38.30;101267.63;15542190;28;20060;-47
2023/05/21 18:36:11;;;;;;;2.67;1.13;;;;;;;24.29;38.16;101269.38;15561559;28;20477;-51
2023/05/21 18:43:43;;;;;;;1.67;1.08;;;;;;;24.10;38.25;101269.28;15548839;28;20096;-49
2023/05/21 18:51:17;;;;;;;2.47;1.48;;;;;;;24.21;38.01;101278.28;15532893;28;20133;-50
2023/05/21 18:58:50;;;;;;;5.50;0.90;;;;;;;23.66;39.02;101279.25;15559037;28;20145;-48
2023/05/21 19:06:26;;;;;;;2.58;1.10;;;;;;;23.39;39.07;101278.84;15543820;28;20045;-48
2023/05/21 19:13:59;;;;;;;2.00;1.30;;;;;;;23.16;39.87;101297.59;15544521;28;20053;-47
2023/05/21 19:21:33;;;;;;;11.23;5.28;;;;;;;23.36;39.66;101312.28;15554549;28;20049;-50
2023/05/21 19:29:06;;;;;;;2.17;0.82;;;;;;;23.12;40.36;101315.66;15554764;28;20136;-50
2023/05/21 19:36:40;;;;;;;1.35;0.70;;;;;;;22.99;40.13;101326.41;15574750;28;20071;-52
2023/05/21 19:44:12;;;;;;;1.83;1.13;;;;;;;22.80;40.39;101318.78;15586280;28;20094;-50
2023/05/21 19:51:46;;;;;;;2.30;1.50;;;;;;;22.75;40.30;101326.97;15550300;28;20485;-50
2023/05/21 19:59:19;;;;;;;2.03;0.88;;;;;;;22.54;40.40;101328.13;15564980;28;20095;-51
2023/05/21 20:06:53;;;;;;;2.38;1.25;;;;;;;22.91;39.53;101322.34;15527560;28;20313;-52
2023/05/21 20:14:26;;;;;;;1.90;1.05;;;;;;;22.85;39.82;101324.25;15531237;28;20050;-51
2023/05/21 20:22:00;;;;;;;2.00;1.40;;;;;;;22.63;39.24;101331.97;15554132;28;20046;-52
2023/05/21 20:29:35;;;;;;;1.88;0.82;;;;;;;22.41;39.77;101330.34;15517013;28;20522;-50
2023/05/21 20:37:10;;;;;;;1.30;0.95;;;;;;;22.98;39.50;101333.78;15607280;28;20050;-54
2023/05/21 20:44:43;;;;;;;2.78;1.55;;;;;;;22.12;40.58;101332.81;15582574;28;20042;-49
2023/05/21 20:52:18;;;;;;;1.67;0.85;;;;;;;22.21;40.69;101330.34;15571010;28;20049;-51
2023/05/21 20:59:52;;;;;;;3.25;1.33;;;;;;;22.17;40.84;101331.16;15550391;28;20145;-51
2023/05/21 21:07:28;;;;;;;1.77;1.08;;;;;;;21.94;40.54;101329.75;15528550;28;20053;-54
2023/05/21 21:15:01;;;;;;;2.15;1.45;;;;;;;22.03;40.68;101342.63;15543816;28;20161;-51
2023/05/21 21:22:35;;;;;;;2.58;1.33;;;;;;;21.87;40.59;101344.53;15560545;28;20046;-48
2023/05/21 21:30:09;;;;;;;1.83;1.10;;;;;;;21.87;40.64;101344.53;15528715;28;20518;-48
2023/05/21 21:37:43;;;;;;;2.25;1.25;;;;;;;21.30;41.20;101344.59;15546298;28;20501;-48
2023/05/21 21:45:16;;;;;;;2.35;0.85;;;;;;;21.05;41.46;101350.75;15536705;28;20429;-50
2023/05/21 21:52:55;;;;;;;2.25;0.98;;;;;;;21.02;41.13;101352.09;15520278;28;20396;-50
2023/05/21 22:00:28;;;;;;;2.75;1.17;;;;;;;21.19;41.12;101349.19;15550719;28;20140;-48
2023/05/21 22:08:02;;;;;;;1.75;1.13;;;;;;;21.02;41.22;101354.81;15485618;28;20300;-46
2023/05/21 22:15:36;;;;;;;3.50;1.33;;;;;;;20.85;41.34;101351.47;15540190;28;20053;-52
2023/05/21 22:23:10;;;;;;;1.48;0.98;;;;;;;20.85;41.22;101351.47;15529540;28;20465;-50
2023/05/21 22:30:42;;;;;;;3.65;1.60;;;;;;;20.70;41.70;101346.72;15580721;28;20235;-51
2023/05/21 22:38:17;;;;;;;1.23;0.98;;;;;;;20.55;42.00;101352.91;15533570;28;20050;-47
2023/05/21 22:45:49;;;;;;;1.35;1.15;;;;;;;20.73;42.28;101357.13;15548720;28;20176;-49
2023/05/21 22:53:25;;;;;;;3.42;1.33;;;;;;;20.25;42.77;101361.66;15548792;28;20057;-50
2023/05/21 23:00:58;;;;;;;1.42;0.80;;;;;;;19.96;43.77;101355.66;15547382;28;20045;-50
2023/05/21 23:08:32;;;;;;;2.22;0.85;;;;;;;19.86;43.83;101358.25;15526261;28;20491;-46
2023/05/21 23:16:05;;;;;;;4.10;1.35;;;;;;;19.82;44.12;101352.53;15542178;28;20147;-51
2023/05/21 23:23:39;;;;;;;3.45;1.40;;;;;;;19.74;44.83;101344.00;15575883;28;20041;-52
2023/05/21 23:31:12;;;;;;;3.13;1.60;;;;;;;19.64;44.91;101344.72;15556253;28;20514;-50
2023/05/21 23:38:46;;;;;;;;;;;;;;;19.46;45.51;101342.28;15604906;28;20061;-46
2023/05/21 23:46:19;;;;;;;2.30;1.00;;;;;;;19.33;46.10;101330.69;15569387;28;20020;-47
2023/05/21 23:53:52;;;;;;;2.30;1.40;;;;;;;19.07;46.39;101340.47;15582430;28;20033;-49
